createdAt,value
2019-01-23T00:00:32.176Z,0.56
2019-01-23T00:03:00.508Z,0.45
2019-01-23T00:05:28.890Z,0.39
2019-01-23T00:07:57.247Z,0.38
2019-01-23T00:10:25.568Z,0.33
2019-01-23T00:12:53.898Z,0.24
2019-01-23T00:15:22.377Z,0.36
2019-01-23T00:17:50.867Z,0.44
2019-01-23T00:20:19.193Z,0.35
2019-01-23T00:22:47.524Z,0.30
2019-01-23T00:25:15.972Z,0.35
2019-01-23T00:27:44.379Z,0.33
2019-01-23T00:30:14.433Z,0.55
2019-01-23T00:32:42.954Z,0.62
2019-01-23T00:35:11.451Z,0.58
2019-01-23T00:37:39.788Z,0.22
2019-01-23T00:40:11.512Z,0.03
2019-01-23T00:42:40.056Z,-0.03
2019-01-23T00:45:11.088Z,-0.12
2019-01-23T00:47:39.397Z,-0.20
2019-01-23T00:50:09.942Z,-0.15
2019-01-23T00:52:39.366Z,-0.12
2019-01-23T00:55:10.904Z,-0.12
2019-01-23T00:57:39.229Z,-0.18
2019-01-23T01:00:22.081Z,-0.16
2019-01-23T01:02:50.641Z,-0.26
2019-01-23T01:05:19.341Z,-0.28
2019-01-23T01:07:47.816Z,-0.25
2019-01-23T01:10:18.284Z,-0.23
2019-01-23T01:12:46.995Z,-0.65
2019-01-23T01:15:16.257Z,-0.55
2019-01-23T01:17:44.909Z,-0.47
2019-01-23T01:20:15.190Z,-0.55
2019-01-23T01:22:43.647Z,-0.63
2019-01-23T01:25:14.887Z,-0.64
2019-01-23T01:27:43.252Z,-0.72
2019-01-23T01:30:22.823Z,-0.63
2019-01-23T01:32:52.020Z,-0.75
2019-01-23T01:35:20.487Z,-0.76
2019-01-23T01:37:48.980Z,-0.69
2019-01-23T01:40:18.841Z,-0.95
2019-01-23T01:42:47.247Z,-0.92
2019-01-23T01:45:16.583Z,-0.92
2019-01-23T01:47:45.054Z,-1.04
2019-01-23T01:50:18.145Z,-1.04
2019-01-23T01:52:46.642Z,-1.12
2019-01-23T01:55:15.006Z,-1.00
2019-01-23T01:57:43.417Z,-0.94
2019-01-23T02:00:14.548Z,-1.00
2019-01-23T02:02:42.948Z,-1.15
2019-01-23T02:05:11.345Z,-1.11
2019-01-23T02:07:39.676Z,-1.16
2019-01-23T02:10:13.721Z,-1.20
2019-01-23T02:12:42.099Z,-1.25
2019-01-23T02:15:12.335Z,-1.19
2019-01-23T02:17:40.764Z,-0.98
2019-01-23T02:20:16.767Z,-1.01
2019-01-23T02:22:47.005Z,-0.95
2019-01-23T02:25:17.084Z,-0.86
2019-01-23T02:27:48.051Z,-0.89
2019-01-23T02:30:20.225Z,-0.87
2019-01-23T02:32:50.778Z,-0.99
2019-01-23T02:35:20.965Z,-0.97
2019-01-23T02:37:51.222Z,-1.10
2019-01-23T02:40:22.193Z,-1.05
2019-01-23T02:42:50.699Z,-1.18
2019-01-23T02:45:20.767Z,-1.25
2019-01-23T02:47:50.545Z,-1.27
2019-01-23T02:50:20.729Z,-1.17
2019-01-23T02:52:50.869Z,-1.25
2019-01-23T02:55:21.159Z,-1.26
2019-01-23T02:57:51.372Z,-1.30
2019-01-23T03:00:21.892Z,-1.27
2019-01-23T03:02:51.994Z,-1.30
2019-01-23T03:05:22.610Z,-1.38
2019-01-23T03:07:52.042Z,-1.43
2019-01-23T03:10:23.045Z,-1.47
2019-01-23T03:12:53.125Z,-1.73
2019-01-23T03:15:23.189Z,-1.88
2019-01-23T03:17:53.473Z,-1.85
2019-01-23T03:20:23.056Z,-1.83
2019-01-23T03:22:52.983Z,-1.59
2019-01-23T03:25:23.289Z,-1.62
2019-01-23T03:27:54.248Z,-1.72
2019-01-23T03:30:24.720Z,-1.86
2019-01-23T03:32:54.685Z,-1.74
2019-01-23T03:35:24.179Z,-1.85
2019-01-23T03:37:54.558Z,-1.89
2019-01-23T03:40:44.525Z,-1.91
2019-01-23T03:43:14.630Z,-1.99
2019-01-23T03:45:44.868Z,-2.23
2019-01-23T03:48:15.186Z,-2.06
2019-01-23T03:50:45.376Z,-2.11
2019-01-23T03:53:15.712Z,-2.13
2019-01-23T03:55:46.218Z,-2.20
2019-01-23T03:58:15.422Z,-2.21
2019-01-23T04:00:45.624Z,-2.18
2019-01-23T04:03:15.477Z,-2.13
2019-01-23T04:05:44.378Z,-2.15
2019-01-23T04:08:14.363Z,-2.24
2019-01-23T04:10:43.463Z,-2.20
2019-01-23T04:13:11.903Z,-2.18
2019-01-23T04:15:40.624Z,-2.26
2019-01-23T04:18:11.008Z,-2.64
2019-01-23T04:20:42.029Z,-2.58
2019-01-23T04:23:13.031Z,-2.63
2019-01-23T04:25:43.465Z,-2.49
2019-01-23T04:28:12.328Z,-2.55
2019-01-23T04:30:42.492Z,-2.58
2019-01-23T04:33:12.746Z,-2.48
2019-01-23T04:35:42.874Z,-2.27
2019-01-23T04:38:11.492Z,-2.29
2019-01-23T04:40:40.135Z,-2.24
2019-01-23T04:43:08.894Z,-2.58
2019-01-23T04:45:37.838Z,-2.67
2019-01-23T04:48:06.568Z,-2.65
2019-01-23T04:50:38.025Z,-2.67
2019-01-23T04:53:11.872Z,-2.92
2019-01-23T04:55:41.193Z,-2.96
2019-01-23T04:58:11.391Z,-2.83
2019-01-23T05:00:41.578Z,-2.78
2019-01-23T05:03:11.080Z,-2.58
2019-01-23T05:05:41.683Z,-2.67
2019-01-23T05:08:10.781Z,-2.71
2019-01-23T05:10:41.250Z,-2.72
2019-01-23T05:13:10.704Z,-2.72
2019-01-23T05:15:40.604Z,-2.82
2019-01-23T05:18:10.663Z,-2.63
2019-01-23T05:20:40.888Z,-2.67
2019-01-23T05:23:10.905Z,-2.79
2019-01-23T05:25:40.835Z,-2.84
2019-01-23T05:28:10.793Z,-2.80
2019-01-23T05:30:41.148Z,-3.07
2019-01-23T05:36:01.340Z,-3.26
2019-01-23T05:38:31.259Z,-3.25
2019-01-23T05:41:01.506Z,-3.17
2019-01-23T05:43:31.409Z,-3.00
2019-01-23T05:46:01.579Z,-2.90
2019-01-23T05:48:30.242Z,-2.81
2019-01-23T05:51:00.882Z,-2.84
2019-01-23T05:53:30.724Z,-2.79
2019-01-23T05:56:00.646Z,-2.84
2019-01-23T05:58:30.438Z,-2.90
2019-01-23T06:01:21.106Z,-2.84
2019-01-23T06:03:49.904Z,-2.94
2019-01-23T06:06:18.802Z,-2.99
2019-01-23T06:08:48.672Z,-3.09
2019-01-23T06:11:19.382Z,-3.01
2019-01-23T06:13:49.482Z,-2.94
2019-01-23T06:16:19.474Z,-3.03
2019-01-23T06:18:49.735Z,-3.06
2019-01-23T06:21:20.111Z,-3.17
2019-01-23T06:23:50.621Z,-3.08
2019-01-23T06:26:20.797Z,-3.06
2019-01-23T06:28:51.452Z,-3.03
2019-01-23T06:31:21.633Z,-3.07
2019-01-23T06:33:50.943Z,-3.32
2019-01-23T06:36:41.470Z,-3.21
2019-01-23T06:39:12.789Z,-3.04
2019-01-23T06:41:44.924Z,-2.97
2019-01-23T06:44:18.064Z,-3.07
2019-01-23T06:46:47.991Z,-2.97
2019-01-23T06:49:37.803Z,-3.01
2019-01-23T06:52:06.808Z,-3.02
2019-01-23T06:54:37.061Z,-3.27
2019-01-23T06:57:06.151Z,-3.38
2019-01-23T06:59:35.337Z,-3.33
2019-01-23T07:02:04.926Z,-3.32
2019-01-23T07:04:34.603Z,-3.27
2019-01-23T07:07:04.771Z,-3.53
2019-01-23T07:09:35.903Z,-3.37
2019-01-23T07:12:05.736Z,-3.35
2019-01-23T07:14:36.207Z,-3.40
2019-01-23T07:17:06.129Z,-3.31
2019-01-23T07:19:36.560Z,-3.34
2019-01-23T07:22:06.609Z,-3.38
2019-01-23T07:24:36.969Z,-3.18
2019-01-23T07:27:07.485Z,-3.17
2019-01-23T07:29:38.041Z,-3.09
2019-01-23T07:32:09.533Z,-3.15
2019-01-23T07:34:40.924Z,-3.18
2019-01-23T07:37:31.203Z,-3.09
2019-01-23T07:40:01.655Z,-3.01
2019-01-23T07:42:31.791Z,-2.87
2019-01-23T07:45:02.326Z,-2.84
2019-01-23T07:47:32.507Z,-2.83
2019-01-23T07:50:03.031Z,-2.81
2019-01-23T07:52:33.370Z,-2.73
2019-01-23T07:55:01.908Z,-2.67
2019-01-23T07:57:52.377Z,-2.78
2019-01-23T08:00:31.521Z,-2.81
2019-01-23T08:02:59.349Z,-2.63
2019-01-23T08:05:29.873Z,-2.43
2019-01-23T08:07:59.713Z,-1.36
2019-01-23T08:10:30.176Z,0.06
2019-01-23T08:13:00.308Z,1.38
2019-01-23T08:15:35.162Z,2.40
2019-01-23T08:18:06.596Z,3.50
2019-01-23T08:20:36.870Z,4.52
2019-01-23T08:23:06.998Z,5.40
2019-01-23T08:25:37.382Z,5.78
2019-01-23T08:28:07.766Z,6.40
2019-01-23T08:30:39.207Z,6.41
2019-01-23T08:33:09.686Z,7.06
2019-01-23T08:35:39.970Z,7.02
2019-01-23T08:38:10.249Z,7.46
2019-01-23T08:40:40.303Z,7.63
2019-01-23T08:43:10.772Z,7.65
2019-01-23T08:45:40.735Z,5.01
2019-01-23T08:48:10.391Z,3.99
2019-01-23T08:50:41.523Z,3.10
2019-01-23T08:53:12.132Z,2.55
2019-01-23T08:55:42.027Z,1.96
2019-01-23T08:58:12.483Z,1.65
2019-01-23T09:00:45.936Z,1.25
2019-01-23T09:03:14.270Z,1.32
2019-01-23T09:05:44.684Z,1.26
2019-01-23T09:08:14.917Z,1.38
2019-01-23T09:10:44.717Z,1.26
2019-01-23T09:13:15.155Z,1.18
2019-01-23T09:15:45.135Z,1.24
2019-01-23T09:18:15.414Z,1.49
2019-01-23T09:20:45.521Z,1.35
2019-01-23T09:23:15.782Z,1.14
2019-01-23T09:25:49.659Z,0.94
2019-01-23T09:28:17.618Z,0.97
2019-01-23T09:30:54.552Z,0.56
2019-01-23T09:33:30.497Z,0.56
2019-01-23T09:36:34.798Z,0.72
2019-01-23T09:39:15.439Z,0.64
2019-01-23T09:41:54.018Z,0.85
2019-01-23T09:44:26.759Z,0.75
2019-01-23T09:47:17.159Z,1.03
2019-01-23T09:50:10.633Z,1.36
2019-01-23T09:53:00.531Z,1.20
2019-01-23T09:55:29.662Z,1.04
2019-01-23T09:57:59.052Z,0.83
2019-01-23T10:00:31.743Z,0.41
2019-01-23T10:03:00.827Z,0.77
2019-01-23T10:05:39.640Z,0.98
2019-01-23T10:08:09.197Z,1.03
2019-01-23T10:10:44.422Z,0.89
2019-01-23T10:13:17.273Z,1.16
2019-01-23T10:15:52.433Z,1.27
2019-01-23T10:18:21.962Z,1.23
2019-01-23T10:20:55.231Z,1.34
2019-01-23T10:23:24.308Z,1.04
2019-01-23T10:25:53.861Z,1.13
2019-01-23T10:28:23.210Z,1.31
2019-01-23T10:30:52.576Z,1.08
2019-01-23T10:33:23.013Z,1.11
2019-01-23T10:35:56.726Z,1.17
2019-01-23T10:38:27.589Z,1.47
2019-01-23T10:40:57.066Z,1.73
2019-01-23T10:43:26.836Z,1.55
2019-01-23T10:45:59.122Z,1.58
2019-01-23T10:48:49.439Z,1.28
2019-01-23T10:51:19.379Z,1.53
2019-01-23T10:53:47.763Z,1.85
2019-01-23T10:56:18.237Z,1.74
2019-01-23T10:58:48.219Z,1.59
2019-01-23T11:01:17.192Z,1.48
2019-01-23T11:03:47.491Z,1.54
2019-01-23T11:06:17.655Z,1.61
2019-01-23T11:08:49.215Z,1.62
2019-01-23T11:11:17.668Z,2.15
2019-01-23T11:13:47.833Z,2.31
2019-01-23T11:16:17.614Z,2.31
2019-01-23T11:18:50.750Z,2.25
2019-01-23T11:21:19.342Z,2.22
2019-01-23T11:23:50.714Z,2.16
2019-01-23T11:26:24.354Z,2.87
2019-01-23T11:28:54.428Z,4.30
2019-01-23T11:31:24.669Z,5.38
2019-01-23T11:33:54.617Z,5.85
2019-01-23T11:36:23.970Z,6.03
2019-01-23T11:38:53.250Z,6.10
2019-01-23T11:41:27.085Z,6.13
2019-01-23T11:43:56.346Z,6.56
2019-01-23T11:46:25.517Z,6.62
2019-01-23T11:48:54.837Z,6.90
2019-01-23T11:51:25.950Z,6.29
2019-01-23T11:53:58.737Z,5.74
2019-01-23T11:56:27.948Z,4.26
2019-01-23T11:58:58.295Z,4.78
2019-01-23T12:01:29.342Z,5.44
2019-01-23T12:04:03.810Z,6.45
2019-01-23T12:06:34.049Z,6.77
2019-01-23T12:09:05.473Z,7.45
2019-01-23T12:11:34.574Z,8.33
2019-01-23T12:14:06.487Z,8.62
2019-01-23T12:16:36.567Z,8.36
2019-01-23T12:19:06.481Z,8.00
2019-01-23T12:21:36.879Z,8.22
2019-01-23T12:24:06.842Z,7.46
2019-01-23T12:26:40.388Z,6.49
2019-01-23T12:29:09.901Z,5.71
2019-01-23T12:31:39.882Z,5.55
2019-01-23T12:34:08.477Z,5.45
2019-01-23T12:36:37.964Z,5.60
2019-01-23T12:39:08.496Z,5.41
2019-01-23T12:41:38.164Z,5.31
2019-01-23T12:44:09.243Z,5.62
2019-01-23T12:46:38.226Z,5.31
2019-01-23T12:49:08.229Z,5.36
2019-01-23T12:51:38.202Z,5.40
2019-01-23T12:54:07.717Z,4.82
2019-01-23T12:56:37.482Z,4.81
2019-01-23T12:59:07.233Z,5.04
2019-01-23T13:01:41.958Z,4.96
2019-01-23T13:04:09.198Z,4.95
2019-01-23T13:06:38.785Z,4.89
2019-01-23T13:09:09.360Z,4.54
2019-01-23T13:11:39.004Z,4.40
2019-01-23T13:14:09.340Z,4.70
2019-01-23T13:16:39.469Z,4.77
2019-01-23T13:19:09.465Z,4.70
2019-01-23T13:21:39.741Z,4.34
2019-01-23T13:24:10.090Z,4.21
2019-01-23T13:26:39.161Z,4.10
2019-01-23T13:29:09.467Z,3.96
2019-01-23T13:31:39.545Z,4.21
2019-01-23T13:34:10.056Z,4.17
2019-01-23T13:36:40.179Z,3.83
2019-01-23T13:39:10.820Z,3.69
2019-01-23T13:41:41.087Z,3.67
2019-01-23T13:44:12.330Z,3.83
2019-01-23T13:46:42.720Z,3.71
2019-01-23T13:49:11.997Z,3.79
2019-01-23T13:51:43.080Z,3.89
2019-01-23T13:54:13.888Z,3.85
2019-01-23T13:56:44.077Z,3.68
2019-01-23T13:59:13.316Z,3.90
2019-01-23T14:01:43.373Z,3.80
2019-01-23T14:04:13.224Z,3.84
2019-01-23T14:06:43.569Z,3.13
2019-01-23T14:09:12.116Z,3.42
2019-01-23T14:11:42.513Z,3.29
2019-01-23T14:14:11.842Z,3.26
2019-01-23T14:16:46.598Z,3.05
2019-01-23T14:19:16.094Z,3.06
2019-01-23T14:21:52.346Z,3.15
2019-01-23T14:24:21.608Z,2.76
2019-01-23T14:26:51.801Z,2.83
2019-01-23T14:29:22.738Z,2.64
2019-01-23T14:31:52.560Z,2.41
2019-01-23T14:34:21.774Z,2.47
2019-01-23T14:36:56.017Z,2.53
2019-01-23T14:39:26.525Z,2.54
2019-01-23T14:41:55.527Z,2.67
2019-01-23T14:44:24.522Z,2.63
2019-01-23T14:46:55.052Z,2.55
2019-01-23T14:49:24.835Z,2.60
2019-01-23T14:51:54.531Z,2.73
2019-01-23T14:54:24.837Z,2.92
2019-01-23T14:56:54.411Z,2.88
2019-01-23T14:59:24.203Z,2.71
2019-01-23T15:01:53.925Z,3.03
2019-01-23T15:04:23.983Z,3.12
2019-01-23T15:06:54.426Z,2.86
2019-01-23T15:09:24.295Z,3.13
2019-01-23T15:11:54.250Z,3.07
2019-01-23T15:14:23.453Z,3.10
2019-01-23T15:16:53.672Z,2.86
2019-01-23T15:19:23.957Z,2.96
2019-01-23T15:21:53.248Z,2.76
2019-01-23T15:24:24.259Z,3.15
2019-01-23T15:26:54.262Z,3.26
2019-01-23T15:29:24.722Z,3.08
2019-01-23T15:31:54.374Z,3.10
2019-01-23T15:34:24.068Z,3.00
2019-01-23T15:36:54.237Z,2.57
2019-01-23T15:39:24.853Z,2.84
2019-01-23T15:41:57.886Z,2.44
2019-01-23T15:44:27.507Z,2.51
2019-01-23T15:47:00.566Z,2.63
2019-01-23T15:49:30.740Z,2.54
2019-01-23T15:52:00.531Z,2.45
2019-01-23T15:54:32.778Z,1.83
2019-01-23T15:57:02.511Z,2.02
2019-01-23T15:59:34.872Z,1.97
2019-01-23T16:02:05.821Z,1.87
2019-01-23T16:04:35.269Z,2.19
2019-01-23T16:07:04.611Z,2.15
2019-01-23T16:09:34.565Z,2.04
2019-01-23T16:12:05.825Z,1.81
2019-01-23T16:14:35.442Z,2.06
2019-01-23T16:17:04.337Z,2.22
2019-01-23T16:19:33.810Z,2.35
2019-01-23T16:22:03.814Z,2.33
2019-01-23T16:24:32.867Z,2.09
2019-01-23T16:27:03.308Z,1.86
2019-01-23T16:29:35.549Z,1.93
2019-01-23T16:32:06.911Z,1.72
2019-01-23T16:34:36.630Z,1.97
2019-01-23T16:37:06.572Z,2.21
2019-01-23T16:39:36.325Z,1.99
2019-01-23T16:42:05.898Z,1.97
2019-01-23T16:44:35.616Z,1.88
2019-01-23T16:47:05.747Z,1.69
2019-01-23T16:49:40.620Z,1.86
2019-01-23T16:52:10.222Z,1.87
2019-01-23T16:54:40.713Z,1.91
2019-01-23T16:57:09.372Z,1.56
2019-01-23T16:59:39.381Z,1.88
2019-01-23T17:02:08.904Z,1.89
2019-01-23T17:04:40.655Z,1.74
2019-01-23T17:07:10.559Z,1.77
2019-01-23T17:09:40.488Z,1.68
2019-01-23T17:12:10.017Z,1.64
2019-01-23T17:14:39.724Z,2.04
2019-01-23T17:17:09.337Z,1.47
2019-01-23T17:19:38.006Z,1.38
2019-01-23T17:22:07.624Z,1.49
2019-01-23T17:24:38.314Z,1.85
2019-01-23T17:27:07.833Z,1.80
2019-01-23T17:29:38.088Z,1.83
2019-01-23T17:32:07.595Z,2.03
2019-01-23T17:34:38.474Z,1.80
2019-01-23T17:37:07.987Z,1.74
2019-01-23T17:39:37.708Z,1.33
2019-01-23T17:42:07.586Z,1.09
2019-01-23T17:44:36.497Z,1.59
2019-01-23T17:47:08.246Z,1.58
2019-01-23T17:49:37.074Z,1.91
2019-01-23T17:52:07.164Z,1.50
2019-01-23T17:54:36.840Z,1.51
2019-01-23T17:57:05.561Z,1.33
2019-01-23T17:59:36.613Z,1.60
2019-01-23T18:02:06.577Z,1.26
2019-01-23T18:04:36.685Z,1.62
2019-01-23T18:07:07.478Z,1.63
2019-01-23T18:09:57.854Z,1.43
2019-01-23T18:12:26.815Z,1.54
2019-01-23T18:14:58.282Z,1.27
2019-01-23T18:17:26.958Z,1.02
2019-01-23T18:19:57.542Z,0.97
2019-01-23T18:22:25.926Z,1.43
2019-01-23T18:24:54.704Z,1.25
2019-01-23T18:27:24.011Z,1.52
2019-01-23T18:29:52.752Z,1.34
2019-01-23T18:32:21.706Z,1.25
2019-01-23T18:35:07.068Z,1.54
2019-01-23T18:38:14.026Z,1.35
2019-01-23T18:41:02.334Z,1.64
2019-01-23T18:44:05.101Z,1.27
2019-01-23T18:46:46.430Z,1.17
2019-01-23T18:49:49.827Z,1.35
2019-01-23T18:52:19.753Z,1.13
2019-01-23T18:54:49.558Z,1.40
2019-01-23T18:57:33.175Z,1.35
2019-01-23T19:00:03.024Z,1.44
2019-01-23T19:02:33.255Z,1.07
2019-01-23T19:05:02.958Z,1.30
2019-01-23T19:07:38.405Z,1.56
2019-01-23T19:10:13.467Z,1.59
2019-01-23T19:12:43.838Z,1.72
2019-01-23T19:15:18.401Z,1.74
2019-01-23T19:17:48.964Z,1.75
2019-01-23T19:20:20.307Z,1.58
2019-01-23T19:22:49.339Z,1.49
2019-01-23T19:25:17.835Z,1.51
2019-01-23T19:27:48.059Z,1.07
2019-01-23T19:30:22.490Z,1.34
2019-01-23T19:32:52.842Z,1.55
2019-01-23T19:35:22.525Z,1.65
2019-01-23T19:37:52.833Z,1.60
2019-01-23T19:40:23.045Z,1.15
2019-01-23T19:42:53.712Z,1.89
2019-01-23T19:45:24.141Z,2.03
2019-01-23T19:47:54.543Z,1.88
2019-01-23T19:50:24.385Z,1.74
2019-01-23T19:52:54.689Z,1.60
2019-01-23T19:55:23.187Z,1.64
2019-01-23T19:57:52.499Z,1.30
2019-01-23T20:00:22.797Z,1.52
2019-01-23T20:02:52.593Z,1.10
2019-01-23T20:05:27.119Z,1.55
2019-01-23T20:07:57.678Z,1.64
2019-01-23T20:10:27.785Z,1.47
2019-01-23T20:12:57.347Z,1.45
2019-01-23T20:18:02.858Z,1.08
2019-01-23T20:20:33.660Z,0.80
2019-01-23T20:23:03.258Z,0.85
2019-01-23T20:25:32.672Z,0.99
2019-01-23T20:28:02.124Z,0.90
2019-01-23T20:30:34.557Z,1.31
2019-01-23T20:33:04.569Z,1.21
2019-01-23T20:35:35.212Z,0.76
2019-01-23T20:38:05.266Z,0.80
2019-01-23T20:40:36.612Z,0.93
2019-01-23T20:43:06.550Z,0.52
2019-01-23T20:45:37.943Z,0.91
2019-01-23T20:48:08.085Z,1.12
2019-01-23T20:50:38.552Z,0.92
2019-01-23T20:53:08.628Z,0.77
2019-01-23T20:55:39.224Z,0.92
2019-01-23T20:58:10.832Z,1.04
2019-01-23T21:00:41.032Z,0.95
2019-01-23T21:03:10.999Z,0.54
2019-01-23T21:05:41.110Z,0.66
2019-01-23T21:08:12.701Z,0.82
2019-01-23T21:10:43.088Z,0.98
2019-01-23T21:13:15.192Z,0.95
2019-01-23T21:15:45.281Z,1.07
2019-01-23T21:18:15.229Z,1.08
2019-01-23T21:20:46.073Z,0.98
2019-01-23T21:23:16.555Z,1.35
2019-01-23T21:25:46.566Z,1.10
2019-01-23T21:28:16.729Z,1.03
2019-01-23T21:30:47.132Z,0.98
2019-01-23T21:33:17.474Z,0.56
2019-01-23T21:35:45.904Z,0.90
2019-01-23T21:38:16.162Z,0.64
2019-01-23T21:40:46.302Z,0.58
2019-01-23T21:43:16.427Z,0.39
2019-01-23T21:45:46.417Z,0.47
2019-01-23T21:48:17.708Z,0.76
2019-01-23T21:50:48.516Z,1.00
2019-01-23T21:53:18.926Z,0.84
2019-01-23T21:55:49.030Z,0.83
2019-01-23T21:58:20.583Z,0.64
2019-01-23T22:00:50.718Z,0.51
2019-01-23T22:03:20.938Z,0.78
2019-01-23T22:05:50.846Z,0.76
2019-01-23T22:08:23.327Z,0.08
2019-01-23T22:10:53.415Z,0.61
2019-01-23T22:13:25.011Z,0.74
2019-01-23T22:15:54.916Z,0.80
2019-01-23T22:18:25.854Z,0.80
2019-01-23T22:20:55.899Z,0.90
2019-01-23T22:23:26.239Z,0.83
2019-01-23T22:25:56.729Z,0.86
2019-01-23T22:28:27.077Z,0.74
2019-01-23T22:30:57.157Z,0.81
2019-01-23T22:33:27.205Z,0.46
2019-01-23T22:35:57.854Z,0.36
2019-01-23T22:38:27.802Z,0.48
2019-01-23T22:40:57.893Z,0.76
2019-01-23T22:43:27.677Z,0.61
2019-01-23T22:45:58.432Z,0.73
2019-01-23T22:48:28.582Z,0.52
2019-01-23T22:50:59.086Z,0.26
2019-01-23T22:53:29.291Z,0.16
2019-01-23T22:55:59.683Z,-0.20
2019-01-23T22:58:29.998Z,-0.24
2019-01-23T23:01:06.952Z,-0.23
2019-01-23T23:03:37.218Z,0.02
2019-01-23T23:06:06.327Z,-0.02
2019-01-23T23:08:36.819Z,0.27
2019-01-23T23:11:07.625Z,0.29
2019-01-23T23:13:37.699Z,0.65
2019-01-23T23:16:08.106Z,0.46
2019-01-23T23:18:38.318Z,0.08
2019-01-23T23:21:12.057Z,0.33
2019-01-23T23:23:42.091Z,0.33
2019-01-23T23:26:13.311Z,0.25
2019-01-23T23:28:43.456Z,0.42
2019-01-23T23:31:12.603Z,0.43
2019-01-23T23:33:43.159Z,0.30
2019-01-23T23:36:13.408Z,0.34
2019-01-23T23:38:42.955Z,0.54
2019-01-23T23:41:13.168Z,0.56
2019-01-23T23:43:44.220Z,0.45
2019-01-23T23:46:14.337Z,0.56
2019-01-23T23:48:44.855Z,0.23
2019-01-23T23:51:15.071Z,0.21
2019-01-23T23:53:46.146Z,0.24
2019-01-23T23:56:16.457Z,-0.04
2019-01-23T23:58:46.661Z,0.04
